sensor_id;sensor_type;location;lat;lon;timestamp;pressure;altitude;pressure_sealevel;temperature;humidity
59055;BME280;44845;51.444;7.460;2023-04-28T00:00:15;99537.63;;;8.86;59.46
59055;BME280;44845;51.444;7.460;2023-04-28T00:02:40;99526.22;;;8.97;59.53
59055;BME280;44845;51.444;7.460;2023-04-28T00:05:06;99521.03;;;8.87;59.63
59055;BME280;44845;51.444;7.460;2023-04-28T00:07:31;99508.84;;;8.89;59.87
59055;BME280;44845;51.444;7.460;2023-04-28T00:09:57;99506.22;;;8.89;60.24
59055;BME280;44845;51.444;7.460;2023-04-28T00:12:22;99510.56;;;8.87;60.16
59055;BME280;44845;51.444;7.460;2023-04-28T00:14:47;99510.50;;;9.00;60.67
59055;BME280;44845;51.444;7.460;2023-04-28T00:17:13;99515.78;;;8.94;62.00
59055;BME280;44845;51.444;7.460;2023-04-28T00:19:38;99507.88;;;9.01;62.61
59055;BME280;44845;51.444;7.460;2023-04-28T00:22:04;99505.25;;;9.03;62.96
59055;BME280;44845;51.444;7.460;2023-04-28T00:24:30;99497.41;;;9.00;63.37
59055;BME280;44845;51.444;7.460;2023-04-28T00:26:57;99488.66;;;9.06;64.69
59055;BME280;44845;51.444;7.460;2023-04-28T00:29:23;99484.25;;;9.09;64.21
59055;BME280;44845;51.444;7.460;2023-04-28T00:31:48;99479.06;;;9.06;64.58
59055;BME280;44845;51.444;7.460;2023-04-28T00:34:14;99476.44;;;9.08;65.63
59055;BME280;44845;51.444;7.460;2023-04-28T00:36:39;99472.97;;;9.03;65.10
59055;BME280;44845;51.444;7.460;2023-04-28T00:39:05;99469.56;;;8.94;66.57
59055;BME280;44845;51.444;7.460;2023-04-28T00:41:30;99468.63;;;9.00;66.41
59055;BME280;44845;51.444;7.460;2023-04-28T00:43:56;99476.47;;;9.03;65.84
59055;BME280;44845;51.444;7.460;2023-04-28T00:46:28;99473.78;;;9.12;66.79
59055;BME280;44845;51.444;7.460;2023-04-28T00:48:57;99467.66;;;9.12;66.18
59055;BME280;44845;51.444;7.460;2023-04-28T00:51:23;99465.06;;;9.14;66.77
59055;BME280;44845;51.444;7.460;2023-04-28T00:53:49;99462.44;;;9.17;67.04
59055;BME280;44845;51.444;7.460;2023-04-28T00:56:14;99457.06;;;9.29;66.99
59055;BME280;44845;51.444;7.460;2023-04-28T00:58:40;99446.53;;;9.39;67.04
59055;BME280;44845;51.444;7.460;2023-04-28T01:01:07;99448.16;;;9.49;67.23
59055;BME280;44845;51.444;7.460;2023-04-28T01:03:35;99448.13;;;9.55;67.97
59055;BME280;44845;51.444;7.460;2023-04-28T01:06:03;99445.44;;;9.58;68.17
59055;BME280;44845;51.444;7.460;2023-04-28T01:08:33;99452.44;;;9.56;70.92
59055;BME280;44845;51.444;7.460;2023-04-28T01:10:58;99450.78;;;9.51;71.59
59055;BME280;44845;51.444;7.460;2023-04-28T01:13:24;99450.75;;;9.52;71.87
59055;BME280;44845;51.444;7.460;2023-04-28T01:15:50;99447.28;;;9.50;72.77
59055;BME280;44845;51.444;7.460;2023-04-28T01:18:16;99449.00;;;9.51;72.43
59055;BME280;44845;51.444;7.460;2023-04-28T01:20:41;99442.94;;;9.48;73.61
59055;BME280;44845;51.444;7.460;2023-04-28T01:23:14;99443.84;;;9.45;74.06
59055;BME280;44845;51.444;7.460;2023-04-28T01:25:40;99440.38;;;9.43;74.74
59055;BME280;44845;51.444;7.460;2023-04-28T01:28:07;99442.06;;;9.47;74.62
59055;BME280;44845;51.444;7.460;2023-04-28T01:30:33;99435.06;;;9.49;74.50
59055;BME280;44845;51.444;7.460;2023-04-28T01:32:59;99442.09;;;9.44;74.67
59055;BME280;44845;51.444;7.460;2023-04-28T01:35:25;99440.38;;;9.46;74.60
59055;BME280;44845;51.444;7.460;2023-04-28T01:37:50;99438.53;;;9.51;74.60
59055;BME280;44845;51.444;7.460;2023-04-28T01:40:15;99438.59;;;9.48;74.79
59055;BME280;44845;51.444;7.460;2023-04-28T01:42:41;99438.59;;;9.48;75.06
59055;BME280;44845;51.444;7.460;2023-04-28T01:45:07;99434.97;;;9.58;75.60
59055;BME280;44845;51.444;7.460;2023-04-28T01:47:32;99435.94;;;9.50;76.05
59055;BME280;44845;51.444;7.460;2023-04-28T01:49:58;99435.91;;;9.53;77.15
59055;BME280;44845;51.444;7.460;2023-04-28T01:52:23;99435.03;;;9.52;77.26
59055;BME280;44845;51.444;7.460;2023-04-28T01:54:51;99429.88;;;9.46;77.66
59055;BME280;44845;51.444;7.460;2023-04-28T01:57:17;99435.91;;;9.54;77.63
59055;BME280;44845;51.444;7.460;2023-04-28T01:59:42;99431.47;;;9.60;77.96
59055;BME280;44845;51.444;7.460;2023-04-28T02:02:07;99436.81;;;9.50;78.46
59055;BME280;44845;51.444;7.460;2023-04-28T02:04:33;99431.63;;;9.44;78.80
59055;BME280;44845;51.444;7.460;2023-04-28T02:06:58;99432.56;;;9.40;79.15
59055;BME280;44845;51.444;7.460;2023-04-28T02:09:24;99430.81;;;9.37;79.10
59055;BME280;44845;51.444;7.460;2023-04-28T02:11:49;99428.22;;;9.39;79.40
59055;BME280;44845;51.444;7.460;2023-04-28T02:14:15;99429.97;;;9.37;79.20
59055;BME280;44845;51.444;7.460;2023-04-28T02:16:40;99425.53;;;9.45;78.73
59055;BME280;44845;51.444;7.460;2023-04-28T02:19:05;99424.69;;;9.40;78.77
59055;BME280;44845;51.444;7.460;2023-04-28T02:21:31;99419.50;;;9.37;79.37
59055;BME280;44845;51.444;7.460;2023-04-28T02:23:57;99428.06;;;9.51;78.72
59055;BME280;44845;51.444;7.460;2023-04-28T02:26:22;99417.69;;;9.42;79.05
59055;BME280;44845;51.444;7.460;2023-04-28T02:28:48;99428.16;;;9.42;79.34
59055;BME280;44845;51.444;7.460;2023-04-28T02:31:14;99431.72;;;9.34;79.86
59055;BME280;44845;51.444;7.460;2023-04-28T02:33:39;99426.47;;;9.38;79.87
59055;BME280;44845;51.444;7.460;2023-04-28T02:36:06;99424.69;;;9.40;79.86
59055;BME280;44845;51.444;7.460;2023-04-28T02:38:32;99412.53;;;9.35;79.83
59055;BME280;44845;51.444;7.460;2023-04-28T02:41:04;99421.25;;;9.38;79.54
59055;BME280;44845;51.444;7.460;2023-04-28T02:43:31;99407.31;;;9.32;79.95
59055;BME280;44845;51.444;7.460;2023-04-28T02:45:57;99405.59;;;9.31;80.01
59055;BME280;44845;51.444;7.460;2023-04-28T02:48:23;99400.41;;;9.25;80.13
59055;BME280;44845;51.444;7.460;2023-04-28T02:50:49;99403.88;;;9.27;80.18
59055;BME280;44845;51.444;7.460;2023-04-28T02:53:15;99400.41;;;9.28;80.39
59055;BME280;44845;51.444;7.460;2023-04-28T02:55:41;99408.19;;;9.33;80.51
59055;BME280;44845;51.444;7.460;2023-04-28T02:58:06;99399.41;;;9.40;80.25
59055;BME280;44845;51.444;7.460;2023-04-28T03:00:31;99396.84;;;9.35;80.21
59055;BME280;44845;51.444;7.460;2023-04-28T03:02:57;99398.59;;;9.33;80.22
59055;BME280;44845;51.444;7.460;2023-04-28T03:05:22;99395.13;;;9.31;80.14
59055;BME280;44845;51.444;7.460;2023-04-28T03:07:48;99399.34;;;9.45;80.05
59055;BME280;44845;51.444;7.460;2023-04-28T03:10:13;99396.75;;;9.42;80.21
59055;BME280;44845;51.444;7.460;2023-04-28T03:12:38;99395.84;;;9.48;79.94
59055;BME280;44845;51.444;7.460;2023-04-28T03:15:04;99396.72;;;9.45;79.83
59055;BME280;44845;51.444;7.460;2023-04-28T03:17:32;99401.13;;;9.43;80.40
59055;BME280;44845;51.444;7.460;2023-04-28T03:19:58;99395.94;;;9.37;80.47
59055;BME280;44845;51.444;7.460;2023-04-28T03:22:23;99394.25;;;9.31;80.84
59055;BME280;44845;51.444;7.460;2023-04-28T03:24:48;99388.16;;;9.30;80.74
59055;BME280;44845;51.444;7.460;2023-04-28T03:27:14;99388.97;;;9.34;81.24
59055;BME280;44845;51.444;7.460;2023-04-28T03:29:39;99391.63;;;9.32;80.94
59055;BME280;44845;51.444;7.460;2023-04-28T03:32:05;99383.75;;;9.34;81.14
59055;BME280;44845;51.444;7.460;2023-04-28T03:34:30;99383.81;;;9.28;81.08
59055;BME280;44845;51.444;7.460;2023-04-28T03:36:56;99376.78;;;9.33;81.11
59055;BME280;44845;51.444;7.460;2023-04-28T03:39:21;99366.38;;;9.28;81.22
59055;BME280;44845;51.444;7.460;2023-04-28T03:41:46;99360.13;;;9.42;80.94
59055;BME280;44845;51.444;7.460;2023-04-28T03:44:12;99367.25;;;9.27;81.16
59055;BME280;44845;51.444;7.460;2023-04-28T03:46:37;99365.53;;;9.26;81.30
59055;BME280;44845;51.444;7.460;2023-04-28T03:49:04;99365.47;;;9.29;81.43
59055;BME280;44845;51.444;7.460;2023-04-28T03:51:30;99362.00;;;9.27;81.39
59055;BME280;44845;51.444;7.460;2023-04-28T03:53:57;99361.16;;;9.28;80.49
59055;BME280;44845;51.444;7.460;2023-04-28T03:56:22;99351.53;;;9.30;81.20
59055;BME280;44845;51.444;7.460;2023-04-28T03:58:48;99343.59;;;9.38;80.74
59055;BME280;44845;51.444;7.460;2023-04-28T04:01:13;99345.31;;;9.39;80.79
59055;BME280;44845;51.444;7.460;2023-04-28T04:03:38;99342.69;;;9.41;81.03
59055;BME280;44845;51.444;7.460;2023-04-28T04:06:04;99340.09;;;9.41;80.93
59055;BME280;44845;51.444;7.460;2023-04-28T04:08:29;99344.50;;;9.35;81.34
59055;BME280;44845;51.444;7.460;2023-04-28T04:10:56;99338.38;;;9.35;81.47
59055;BME280;44845;51.444;7.460;2023-04-28T04:13:21;99340.06;;;9.39;81.26
59055;BME280;44845;51.444;7.460;2023-04-28T04:15:47;99327.00;;;9.41;81.11
59055;BME280;44845;51.444;7.460;2023-04-28T04:18:12;99332.22;;;9.41;81.29
59055;BME280;44845;51.444;7.460;2023-04-28T04:20:38;99325.31;;;9.35;81.25
59055;BME280;44845;51.444;7.460;2023-04-28T04:23:04;99320.03;;;9.37;81.46
59055;BME280;44845;51.444;7.460;2023-04-28T04:25:30;99314.81;;;9.37;81.28
59055;BME280;44845;51.444;7.460;2023-04-28T04:27:56;99316.56;;;9.34;81.53
59055;BME280;44845;51.444;7.460;2023-04-28T04:30:22;99320.00;;;9.40;81.67
59055;BME280;44845;51.444;7.460;2023-04-28T04:32:47;99313.97;;;9.34;81.45
59055;BME280;44845;51.444;7.460;2023-04-28T04:35:12;99310.53;;;9.29;81.79
59055;BME280;44845;51.444;7.460;2023-04-28T04:37:38;99300.06;;;9.29;82.00
59055;BME280;44845;51.444;7.460;2023-04-28T04:40:03;99302.59;;;9.39;81.79
59055;BME280;44845;51.444;7.460;2023-04-28T04:42:29;99297.34;;;9.40;81.30
59055;BME280;44845;51.444;7.460;2023-04-28T04:44:54;99296.41;;;9.44;81.83
59055;BME280;44845;51.444;7.460;2023-04-28T04:47:20;99299.88;;;9.48;81.99
59055;BME280;44845;51.444;7.460;2023-04-28T04:49:46;99298.16;;;9.45;81.86
59055;BME280;44845;51.444;7.460;2023-04-28T04:52:11;99290.28;;;9.44;81.93
59055;BME280;44845;51.444;7.460;2023-04-28T04:54:37;99283.28;;;9.48;82.24
59055;BME280;44845;51.444;7.460;2023-04-28T04:57:02;99292.81;;;9.52;82.14
59055;BME280;44845;51.444;7.460;2023-04-28T04:59:27;99302.38;;;9.54;82.10
59055;BME280;44845;51.444;7.460;2023-04-28T05:01:53;99303.16;;;9.61;81.56
59055;BME280;44845;51.444;7.460;2023-04-28T05:04:18;99304.19;;;9.49;81.89
59055;BME280;44845;51.444;7.460;2023-04-28T05:06:43;99297.13;;;9.57;82.07
59055;BME280;44845;51.444;7.460;2023-04-28T05:09:09;99296.25;;;9.57;82.20
59055;BME280;44845;51.444;7.460;2023-04-28T05:11:34;99297.16;;;9.54;82.05
59055;BME280;44845;51.444;7.460;2023-04-28T05:14:00;99295.44;;;9.53;82.03
59055;BME280;44845;51.444;7.460;2023-04-28T05:16:25;99305.91;;;9.53;82.55
59055;BME280;44845;51.444;7.460;2023-04-28T05:18:52;99312.81;;;9.61;82.05
59055;BME280;44845;51.444;7.460;2023-04-28T05:21:17;99318.03;;;9.61;82.15
59055;BME280;44845;51.444;7.460;2023-04-28T05:23:43;99317.06;;;9.66;82.21
59055;BME280;44845;51.444;7.460;2023-04-28T05:26:08;99311.91;;;9.63;81.93
59055;BME280;44845;51.444;7.460;2023-04-28T05:28:33;99305.78;;;9.61;82.49
59055;BME280;44845;51.444;7.460;2023-04-28T05:30:59;99304.94;;;9.59;82.76
59055;BME280;44845;51.444;7.460;2023-04-28T05:33:24;99303.13;;;9.66;82.79
59055;BME280;44845;51.444;7.460;2023-04-28T05:35:49;99315.16;;;9.79;82.43
59055;BME280;44845;51.444;7.460;2023-04-28T05:38:16;99314.44;;;9.69;82.61
59055;BME280;44845;51.444;7.460;2023-04-28T05:40:41;99307.38;;;9.75;82.81
59055;BME280;44845;51.444;7.460;2023-04-28T05:43:06;99305.66;;;9.72;82.80
59055;BME280;44845;51.444;7.460;2023-04-28T05:45:32;99294.28;;;9.75;83.24
59055;BME280;44845;51.444;7.460;2023-04-28T05:47:57;99292.53;;;9.75;83.02
59055;BME280;44845;51.444;7.460;2023-04-28T05:50:22;99288.22;;;9.71;83.17
59055;BME280;44845;51.444;7.460;2023-04-28T05:52:48;99277.66;;;9.77;83.20
59055;BME280;44845;51.444;7.460;2023-04-28T05:55:13;99279.44;;;9.75;83.27
59055;BME280;44845;51.444;7.460;2023-04-28T05:57:38;99274.25;;;9.72;83.37
59055;BME280;44845;51.444;7.460;2023-04-28T06:00:04;99264.53;;;9.80;83.09
59055;BME280;44845;51.444;7.460;2023-04-28T06:02:30;99259.31;;;9.80;82.68
59055;BME280;44845;51.444;7.460;2023-04-28T06:04:55;99256.63;;;9.85;82.21
59055;BME280;44845;51.444;7.460;2023-04-28T06:07:20;99258.25;;;9.91;82.78
59055;BME280;44845;51.444;7.460;2023-04-28T06:09:46;99259.91;;;9.98;83.00
59055;BME280;44845;51.444;7.460;2023-04-28T06:12:11;99252.81;;;10.07;82.06
59055;BME280;44845;51.444;7.460;2023-04-28T06:14:37;99253.53;;;10.15;82.58
59055;BME280;44845;51.444;7.460;2023-04-28T06:17:03;99259.72;;;10.11;82.98
59055;BME280;44845;51.444;7.460;2023-04-28T06:19:28;99261.38;;;10.15;82.83
59055;BME280;44845;51.444;7.460;2023-04-28T06:21:54;99256.25;;;10.09;82.33
59055;BME280;44845;51.444;7.460;2023-04-28T06:24:19;99248.34;;;10.12;82.36
59055;BME280;44845;51.444;7.460;2023-04-28T06:26:45;99245.63;;;10.18;81.38
59055;BME280;44845;51.444;7.460;2023-04-28T06:29:10;99248.31;;;10.13;81.16
59055;BME280;44845;51.444;7.460;2023-04-28T06:31:35;99236.16;;;10.09;82.05
59055;BME280;44845;51.444;7.460;2023-04-28T06:34:01;99242.22;;;10.13;82.42
59055;BME280;44845;51.444;7.460;2023-04-28T06:36:26;99236.94;;;10.16;82.76
59055;BME280;44845;51.444;7.460;2023-04-28T06:38:52;99239.56;;;10.16;82.30
59055;BME280;44845;51.444;7.460;2023-04-28T06:41:17;99229.03;;;10.19;81.45
59055;BME280;44845;51.444;7.460;2023-04-28T06:43:43;99231.66;;;10.19;82.09
59055;BME280;44845;51.444;7.460;2023-04-28T06:46:08;99236.84;;;10.22;82.29
59055;BME280;44845;51.444;7.460;2023-04-28T06:48:35;99233.34;;;10.20;82.70
59055;BME280;44845;51.444;7.460;2023-04-28T06:51:00;99230.63;;;10.30;82.28
59055;BME280;44845;51.444;7.460;2023-04-28T06:53:26;99229.69;;;10.31;82.24
59055;BME280;44845;51.444;7.460;2023-04-28T06:55:51;99221.69;;;10.40;82.42
59055;BME280;44845;51.444;7.460;2023-04-28T06:58:17;99209.28;;;10.50;81.61
59055;BME280;44845;51.444;7.460;2023-04-28T07:00:42;99207.38;;;10.60;81.47
59055;BME280;44845;51.444;7.460;2023-04-28T07:03:08;99206.31;;;10.70;81.86
59055;BME280;44845;51.444;7.460;2023-04-28T07:05:37;99216.63;;;10.80;80.92
59055;BME280;44845;51.444;7.460;2023-04-28T07:08:03;99218.19;;;10.90;81.38
59055;BME280;44845;51.444;7.460;2023-04-28T07:10:28;99216.41;;;10.92;81.52
59055;BME280;44845;51.444;7.460;2023-04-28T07:12:54;99221.47;;;11.02;81.27
59055;BME280;44845;51.444;7.460;2023-04-28T07:15:19;99221.41;;;11.05;80.91
59055;BME280;44845;51.444;7.460;2023-04-28T07:17:44;99231.03;;;11.04;81.44
59055;BME280;44845;51.444;7.460;2023-04-28T07:20:10;99225.69;;;11.09;81.49
59055;BME280;44845;51.444;7.460;2023-04-28T07:22:36;99226.53;;;11.11;81.13
59055;BME280;44845;51.444;7.460;2023-04-28T07:25:02;99219.56;;;11.10;81.58
59055;BME280;44845;51.444;7.460;2023-04-28T07:27:28;99209.06;;;11.10;81.94
59055;BME280;44845;51.444;7.460;2023-04-28T07:29:54;99204.69;;;11.11;81.82
59055;BME280;44845;51.444;7.460;2023-04-28T07:32:19;99201.13;;;11.13;82.12
59055;BME280;44845;51.444;7.460;2023-04-28T07:34:45;99203.63;;;11.20;82.26
59055;BME280;44845;51.444;7.460;2023-04-28T07:37:10;99200.97;;;11.21;82.21
59055;BME280;44845;51.444;7.460;2023-04-28T07:39:36;99202.59;;;11.27;82.04
59055;BME280;44845;51.444;7.460;2023-04-28T07:42:03;99204.41;;;11.23;82.92
59055;BME280;44845;51.444;7.460;2023-04-28T07:44:29;99193.69;;;11.34;82.28
59055;BME280;44845;51.444;7.460;2023-04-28T07:46:54;99197.09;;;11.38;82.19
59055;BME280;44845;51.444;7.460;2023-04-28T07:49:20;99205.78;;;11.42;81.21
59055;BME280;44845;51.444;7.460;2023-04-28T07:51:45;99203.16;;;11.42;82.30
59055;BME280;44845;51.444;7.460;2023-04-28T07:54:11;99210.94;;;11.46;82.35
59055;BME280;44845;51.444;7.460;2023-04-28T07:56:36;99206.50;;;11.50;82.47
59055;BME280;44845;51.444;7.460;2023-04-28T07:59:02;99215.06;;;11.58;82.28
59055;BME280;44845;51.444;7.460;2023-04-28T08:01:27;99212.09;;;11.74;81.58
59055;BME280;44845;51.444;7.460;2023-04-28T08:03:52;99209.19;;;11.87;81.52
59055;BME280;44845;51.444;7.460;2023-04-28T08:06:18;99208.97;;;11.96;81.52
59055;BME280;44845;51.444;7.460;2023-04-28T08:08:43;99208.72;;;12.05;81.36
59055;BME280;44845;51.444;7.460;2023-04-28T08:11:09;99211.16;;;12.15;81.55
59055;BME280;44845;51.444;7.460;2023-04-28T08:13:35;99212.63;;;12.27;81.60
59055;BME280;44845;51.444;7.460;2023-04-28T08:16:00;99209.78;;;12.35;81.60
59055;BME280;44845;51.444;7.460;2023-04-28T08:18:27;99215.69;;;12.45;81.52
59055;BME280;44845;51.444;7.460;2023-04-28T08:20:52;99221.81;;;12.45;81.82
59055;BME280;44845;51.444;7.460;2023-04-28T08:23:18;99214.56;;;12.54;80.10
59055;BME280;44845;51.444;7.460;2023-04-28T08:25:44;99212.53;;;12.65;80.95
59055;BME280;44845;51.444;7.460;2023-04-28T08:28:10;99216.88;;;12.66;80.73
59055;BME280;44845;51.444;7.460;2023-04-28T08:30:35;99216.56;;;12.79;80.55
59055;BME280;44845;51.444;7.460;2023-04-28T08:33:02;99223.25;;;12.91;80.71
59055;BME280;44845;51.444;7.460;2023-04-28T08:35:28;99215.56;;;12.83;79.70
59055;BME280;44845;51.444;7.460;2023-04-28T08:37:54;99218.69;;;12.98;79.22
59055;BME280;44845;51.444;7.460;2023-04-28T08:40:19;99215.81;;;13.05;79.71
59055;BME280;44845;51.444;7.460;2023-04-28T08:42:46;99216.41;;;13.15;80.00
59055;BME280;44845;51.444;7.460;2023-04-28T08:45:15;99223.16;;;13.26;79.68
59055;BME280;44845;51.444;7.460;2023-04-28T08:47:41;99224.69;;;13.33;79.94
59055;BME280;44845;51.444;7.460;2023-04-28T08:50:10;99223.75;;;13.36;79.47
59055;BME280;44845;51.444;7.460;2023-04-28T08:52:40;99219.50;;;13.30;78.67
59055;BME280;44845;51.444;7.460;2023-04-28T08:55:08;99209.78;;;13.32;78.48
59055;BME280;44845;51.444;7.460;2023-04-28T09:00:02;99212.19;;;13.42;79.23
59055;BME280;44845;51.444;7.460;2023-04-28T09:02:28;99205.00;;;13.47;79.82
59055;BME280;44845;51.444;7.460;2023-04-28T09:04:53;99207.63;;;13.47;78.67
59055;BME280;44845;51.444;7.460;2023-04-28T09:07:19;99210.44;;;13.40;78.93
59055;BME280;44845;51.444;7.460;2023-04-28T09:09:44;99204.88;;;13.50;79.06
59055;BME280;44845;51.444;7.460;2023-04-28T09:12:10;99204.63;;;13.59;79.11
59055;BME280;44845;51.444;7.460;2023-04-28T09:14:37;99205.28;;;13.68;79.06
59055;BME280;44845;51.444;7.460;2023-04-28T09:17:10;99203.28;;;13.74;76.73
59055;BME280;44845;51.444;7.460;2023-04-28T09:19:38;99204.06;;;13.78;76.32
59055;BME280;44845;51.444;7.460;2023-04-28T09:22:04;99203.06;;;13.82;78.13
59055;BME280;44845;51.444;7.460;2023-04-28T09:24:35;99201.31;;;13.81;77.71
59055;BME280;44845;51.444;7.460;2023-04-28T09:27:04;99198.75;;;13.80;77.93
59055;BME280;44845;51.444;7.460;2023-04-28T09:29:32;99190.09;;;13.76;77.88
59055;BME280;44845;51.444;7.460;2023-04-28T09:32:16;99195.44;;;13.73;78.13
59055;BME280;44845;51.444;7.460;2023-04-28T09:34:48;99199.69;;;13.77;78.12
59055;BME280;44845;51.444;7.460;2023-04-28T09:37:19;99201.63;;;13.72;78.11
59055;BME280;44845;51.444;7.460;2023-04-28T09:39:46;99207.81;;;13.71;78.02
59055;BME280;44845;51.444;7.460;2023-04-28T09:42:31;99217.78;;;13.61;78.10
59055;BME280;44845;51.444;7.460;2023-04-28T09:44:57;99204.75;;;13.56;78.26
59055;BME280;44845;51.444;7.460;2023-04-28T09:47:23;99206.44;;;13.57;78.61
59055;BME280;44845;51.444;7.460;2023-04-28T09:49:56;99204.75;;;13.56;78.97
59055;BME280;44845;51.444;7.460;2023-04-28T09:52:23;99204.63;;;13.59;78.86
59055;BME280;44845;51.444;7.460;2023-04-28T09:54:49;99196.41;;;13.70;79.43
59055;BME280;44845;51.444;7.460;2023-04-28T09:57:16;99197.84;;;13.81;78.08
59055;BME280;44845;51.444;7.460;2023-04-28T09:59:46;99193.22;;;13.88;78.07
59055;BME280;44845;51.444;7.460;2023-04-28T10:02:14;99204.59;;;13.90;77.81
59055;BME280;44845;51.444;7.460;2023-04-28T10:04:43;99196.50;;;13.96;78.17
59055;BME280;44845;51.444;7.460;2023-04-28T10:07:11;99198.28;;;13.94;77.86
59055;BME280;44845;51.444;7.460;2023-04-28T10:09:37;99205.69;;;13.82;77.73
59055;BME280;44845;51.444;7.460;2023-04-28T10:12:03;99201.28;;;13.83;77.56
59055;BME280;44845;51.444;7.460;2023-04-28T10:14:30;99197.69;;;13.85;77.37
59055;BME280;44845;51.444;7.460;2023-04-28T10:16:58;99197.78;;;13.82;78.24
59055;BME280;44845;51.444;7.460;2023-04-28T10:19:23;99197.03;;;13.79;78.33
59055;BME280;44845;51.444;7.460;2023-04-28T10:22:04;99189.88;;;13.82;79.35
59055;BME280;44845;51.444;7.460;2023-04-28T10:24:50;99185.38;;;13.86;79.40
59055;BME280;44845;51.444;7.460;2023-04-28T10:27:18;99196.59;;;13.93;79.98
59055;BME280;44845;51.444;7.460;2023-04-28T10:29:44;99193.94;;;13.93;80.19
59055;BME280;44845;51.444;7.460;2023-04-28T10:34:40;99182.63;;;14.16;79.89
59055;BME280;44845;51.444;7.460;2023-04-28T10:37:06;99180.66;;;14.23;79.12
59055;BME280;44845;51.444;7.460;2023-04-28T10:39:31;99181.16;;;14.35;79.03
59055;BME280;44845;51.444;7.460;2023-04-28T10:41:57;99176.53;;;14.41;79.01
59055;BME280;44845;51.444;7.460;2023-04-28T10:47:06;99165.63;;;14.52;77.35
59055;BME280;44845;51.444;7.460;2023-04-28T10:55:30;99168.34;;;14.49;77.92
59055;BME280;44845;51.444;7.460;2023-04-28T11:00:45;99179.28;;;14.64;77.46
59055;BME280;44845;51.444;7.460;2023-04-28T11:06:21;99166.19;;;14.61;77.95
59055;BME280;44845;51.444;7.460;2023-04-28T11:08:51;99173.94;;;14.66;77.37
59055;BME280;44845;51.444;7.460;2023-04-28T11:11:24;99176.63;;;14.64;77.99
59055;BME280;44845;51.444;7.460;2023-04-28T11:13:51;99163.53;;;14.61;78.65
59055;BME280;44845;51.444;7.460;2023-04-28T11:16:19;99173.63;;;14.49;77.79
59055;BME280;44845;51.444;7.460;2023-04-28T11:21:18;99169.69;;;14.36;78.79
59055;BME280;44845;51.444;7.460;2023-04-28T11:23:45;99166.31;;;14.32;79.63
59055;BME280;44845;51.444;7.460;2023-04-28T11:26:11;99183.00;;;14.33;79.60
59055;BME280;44845;51.444;7.460;2023-04-28T11:28:53;99179.41;;;14.35;80.00
59055;BME280;44845;51.444;7.460;2023-04-28T11:31:21;99184.78;;;14.30;80.06
59055;BME280;44845;51.444;7.460;2023-04-28T11:33:51;99179.03;;;14.19;80.14
59055;BME280;44845;51.444;7.460;2023-04-28T11:36:27;99183.41;;;14.20;80.36
59055;BME280;44845;51.444;7.460;2023-04-28T11:38:56;99178.28;;;14.15;79.85
59055;BME280;44845;51.444;7.460;2023-04-28T11:41:22;99183.91;;;14.04;80.48
59055;BME280;44845;51.444;7.460;2023-04-28T11:43:47;99185.44;;;14.12;81.13
59055;BME280;44845;51.444;7.460;2023-04-28T11:46:20;99186.38;;;14.09;81.26
59055;BME280;44845;51.444;7.460;2023-04-28T11:48:46;99182.94;;;14.07;81.28
59055;BME280;44845;51.444;7.460;2023-04-28T11:51:32;99186.47;;;14.06;81.59
59055;BME280;44845;51.444;7.460;2023-04-28T11:53:58;99197.91;;;14.06;82.61
59055;BME280;44845;51.444;7.460;2023-04-28T11:56:24;99186.38;;;14.09;83.21
59055;BME280;44845;51.444;7.460;2023-04-28T11:59:04;99185.13;;;14.21;83.22
59055;BME280;44845;51.444;7.460;2023-04-28T12:01:31;99189.88;;;14.37;83.33
59055;BME280;44845;51.444;7.460;2023-04-28T12:03:57;99183.38;;;14.47;83.87
59055;BME280;44845;51.444;7.460;2023-04-28T12:06:22;99188.69;;;14.46;83.69
59055;BME280;44845;51.444;7.460;2023-04-28T12:08:48;99181.66;;;14.46;83.28
59055;BME280;44845;51.444;7.460;2023-04-28T12:11:14;99188.75;;;14.44;83.36
59055;BME280;44845;51.444;7.460;2023-04-28T12:13:42;99190.69;;;14.39;83.20
59055;BME280;44845;51.444;7.460;2023-04-28T12:16:07;99188.38;;;14.29;83.35
59055;BME280;44845;51.444;7.460;2023-04-28T12:18:34;99183.28;;;14.23;83.47
59055;BME280;44845;51.444;7.460;2023-04-28T12:21:00;99188.88;;;14.14;83.74
59055;BME280;44845;51.444;7.460;2023-04-28T12:23:30;99190.91;;;14.05;83.85
59055;BME280;44845;51.444;7.460;2023-04-28T12:25:56;99194.50;;;14.03;83.92
59055;BME280;44845;51.444;7.460;2023-04-28T12:28:22;99184.78;;;14.05;84.45
59055;BME280;44845;51.444;7.460;2023-04-28T12:30:47;99189.00;;;14.11;84.26
59055;BME280;44845;51.444;7.460;2023-04-28T12:33:23;99188.78;;;14.17;84.28
59055;BME280;44845;51.444;7.460;2023-04-28T12:35:49;99190.59;;;14.15;84.32
59055;BME280;44845;51.444;7.460;2023-04-28T12:38:14;99192.03;;;14.25;84.18
59055;BME280;44845;51.444;7.460;2023-04-28T12:40:41;99196.38;;;14.26;84.74
59055;BME280;44845;51.444;7.460;2023-04-28T12:43:06;99197.19;;;14.28;84.01
59055;BME280;44845;51.444;7.460;2023-04-28T12:45:31;99197.78;;;14.37;83.89
59055;BME280;44845;51.444;7.460;2023-04-28T12:48:00;99200.09;;;14.46;83.68
59055;BME280;44845;51.444;7.460;2023-04-28T12:50:26;99197.38;;;14.49;83.53
59055;BME280;44845;51.444;7.460;2023-04-28T12:52:53;99196.44;;;14.50;83.49
59055;BME280;44845;51.444;7.460;2023-04-28T12:55:20;99195.63;;;14.48;83.47
59055;BME280;44845;51.444;7.460;2023-04-28T12:57:45;99194.09;;;14.43;83.63
59055;BME280;44845;51.444;7.460;2023-04-28T13:00:11;99195.06;;;14.40;83.53
59055;BME280;44845;51.444;7.460;2023-04-28T13:02:38;99192.50;;;14.37;83.32
59055;BME280;44845;51.444;7.460;2023-04-28T13:05:04;99194.22;;;14.38;83.24
59055;BME280;44845;51.444;7.460;2023-04-28T13:07:30;99197.78;;;14.37;83.51
59055;BME280;44845;51.444;7.460;2023-04-28T13:09:56;99192.09;;;14.49;83.32
59055;BME280;44845;51.444;7.460;2023-04-28T13:12:22;99175.13;;;14.57;82.25
59055;BME280;44845;51.444;7.460;2023-04-28T13:14:48;99178.56;;;14.59;83.00
59055;BME280;44845;51.444;7.460;2023-04-28T13:17:14;99172.09;;;14.68;82.76
59055;BME280;44845;51.444;7.460;2023-04-28T13:19:39;99169.94;;;14.79;82.80
59055;BME280;44845;51.444;7.460;2023-04-28T13:22:05;99166.94;;;14.90;82.53